Nearby METAR Reports

METAR is the scheduled surface weather observation taken hourly at civil and military airport locations.

METAR is an acronym from the French language and roughly translates as Aviation Routine Weather Report.

 

EGPL - Benbecula Island, United Kingdom
Distance from station: WNW 41mi, 66km
Updated: 16/11/2018 11:50
Few Clouds
Few Clouds
 Wind from SSE
Wind: SSE 21 mph , 33 km/h
Temperature: 12°C
Dew Point: 9°C
Humidity: 82%
Barometer: 1018 hPa
Clouds: Few Clouds
Visibility: 6 miles , 10 km
Cloud details: Few Clouds 366 m
2018/11/16 11:50 EGPL 161150Z 16018KT 9999 FEW012 12/09 Q1018
EGPU - Tiree Island, United Kingdom
Distance from station: SSW 56mi, 90km
Updated: 16/11/2018 11:50
Nearby showers, Mostly cloudy
Nearby showers, Mostly cloudy
 Wind from SSE
Wind: SSE 21 mph , 33 km/h
Temperature: 12°C
Dew Point: 11°C
Humidity: 94%
Barometer: 1019 hPa
Summary: Nearby Showers
Clouds: Mostly cloudy
Visibility: 6 miles , 9 km
Cloud details: Few Clouds 274 m
Mostly cloudy 1067 m
2018/11/16 11:50 EGPU 161150Z 15018KT 9000 VCSH FEW009 BKN035 12/11 Q1019
 
EGEO - Oban Airport, United Kingdom
Distance from station: SE 65mi, 105km
Updated: 16/11/2018 11:50
Mostly cloudy
Mostly cloudy
 Wind from ESE
Wind: ESE 10 mph , 17 km/h
Temperature: 12°C
Dew Point: 9°C
Humidity: 82%
Barometer: 1022 hPa
Clouds: Mostly cloudy
Visibility: 6 miles , 10 km
Cloud details: Mostly cloudy 640 m
2018/11/16 11:50 EGEO 161150Z 11009KT 9999 BKN021 12/09 Q1022
EGPO - Stornoway, United Kingdom
Distance from station: 0 66mi, 106km
Updated: 16/11/2018 11:50
Few Clouds
Few Clouds
 Wind from S
Wind: S 21 mph , 33 km/h
Temperature: 12°C
Dew Point: 8°C
Humidity: 77%
Barometer: 1019 hPa
Clouds: Few Clouds
Visibility: 6 miles , 10 km
Cloud details: Few Clouds 610 m
2018/11/16 11:50 EGPO 161150Z 17018KT 9999 FEW020 12/08 Q1019
 
EGPE - Inverness/Dalcro, United Kingdom
Distance from station: ENE 88mi, 141km
Updated: 16/11/2018 11:50
Few Clouds
Few Clouds
 Wind from varies
Wind: varies 2 mph , 4 km/h
Temperature: 12°C
Dew Point: 8°C
Humidity: 77%
Barometer: 1023 hPa
Clouds: Few Clouds
Visibility: 6 miles , 10 km
Cloud details: Few Clouds 914 m
2018/11/16 11:50 EGPE 161150Z VRB02KT 9999 FEW030 12/08 Q1023
EGQA - Tain Range (saws, United Kingdom
Distance from station: ENE 97mi, 156km
Updated: 16/11/2018 10:50
Clear
Clear
 Wind from E
Wind: E 6 mph , 9 km/h
Summary: Clear
Visibility: greater than 7 miles , 10 km
2018/11/16 10:50 EGQA 161050Z 08005KT CAVOK 10/// Q1023 BLU
 
EGQK - Kinloss Raf, United Kingdom
Distance from station: ENE 107mi, 171km
Updated: 16/11/2018 10:50
Clear
Clear
 Wind from ESE
Wind: ESE 5 mph , 7 km/h
Temperature: 10°C
Wind Chill: 9°C
Dew Point: 5°C
Humidity: 71%
Barometer: 1023 hPa
Clouds: Clear
Visibility: 6 miles , 10 km
2018/11/16 10:50 EGQK 161050Z AUTO 11004KT 9999 NCD 10/05 Q1023
EGPI - Islay/Port Ellen, United Kingdom
Distance from station: S 110mi, 177km
Updated: 16/11/2018 11:50
Partly cloudy
Partly cloudy
 Wind from SE
Wind: SE 23 mph , 37 km/h
Temperature: 13°C
Dew Point: 12°C
Humidity: 94%
Barometer: 1020 hPa
Clouds: Partly cloudy
Visibility: 6 miles , 10 km
Cloud details: Mostly cloudy 183 m
Partly cloudy 1280 m
2018/11/16 11:50 EGPI 161150Z 14020KT 110V170 9999 BKN006 SCT042 13/12 Q1020
 
EGQS - Lossiemouth Raf, United Kingdom
Distance from station: ENE 117mi, 188km
Updated: 16/11/2018 11:50
Mostly cloudy
Mostly cloudy
 Wind from ESE
Wind: ESE 6 mph , 9 km/h
Temperature: 12°C
Dew Point: 6°C
Humidity: 67%
Barometer: 1023 hPa
Clouds: Mostly cloudy
Visibility: 6 miles , 10 km
Cloud details: Few Clouds 914 m
Mostly cloudy 7620 m
2018/11/16 11:50 EGQS 161150Z 11005KT 9999 FEW030 BKN250 12/06 Q1023 BLU NOSIG
EGPF - Glasgow Airport, United Kingdom
Distance from station: SE 121mi, 195km
Updated: 16/11/2018 11:50
Overcast
Overcast
 Wind from varies
Wind: varies 2 mph , 4 km/h
Temperature: 10°C
Dew Point: 10°C
Humidity: 100%
Barometer: 1023 hPa
Clouds: Overcast
Visibility: 6 miles , 10 km
Cloud details: Overcast 1433 m
2018/11/16 11:50 EGPF 161150Z AUTO VRB02KT 9999 OVC047 10/10 Q1023
 
EGEC - Campbeltown, United Kingdom
Distance from station: SSE 129mi, 207km
Updated: 16/11/2018 11:50
Mostly cloudy
Mostly cloudy
 Wind from SE
Wind: SE 18 mph , 30 km/h
Temperature: 13°C
Dew Point: 12°C
Humidity: 94%
Barometer: 1021 hPa
Clouds: Mostly cloudy
Visibility: 6 miles , 10 km
Cloud details: Mostly cloudy 274 m
2018/11/16 11:50 EGEC 161150Z 13016KT 9999 BKN009 13/12 Q1021
EGPN - Dundee/Riverside, United Kingdom
Distance from station: ESE 137mi, 221km
Updated: 16/11/2018 11:50
Mostly cloudy
Mostly cloudy
 Wind from calm
Wind: Calm
Temperature: 10°C
Dew Point: 9°C
Humidity: 94%
Barometer: 1024 hPa
Clouds: Mostly cloudy
Visibility: 6 miles , 10 km
Cloud details: Mostly cloudy 1433 m
2018/11/16 11:50 EGPN 161150Z 00000KT 9999 BKN047 10/09 Q1024
 
EGPK - Prestwick(Civ/Na, United Kingdom
Distance from station: SSE 139mi, 224km
Updated: 16/11/2018 11:50
Mostly cloudy
Mostly cloudy
 Wind from ESE
Wind: ESE 7 mph , 11 km/h
Temperature: 13°C
Dew Point: 11°C
Humidity: 88%
Barometer: 1023 hPa
Clouds: Mostly cloudy
Visibility: 6 miles , 10 km
Cloud details: Few Clouds 427 m
Mostly cloudy 549 m
2018/11/16 11:50 EGPK 161150Z 12006KT 9999 FEW014 BKN018 13/11 Q1023
EGQL - Leuchars Raf, United Kingdom
Distance from station: ESE 145mi, 233km
Updated: 16/11/2018 11:50
Mostly cloudy
Mostly cloudy
 Wind from SSE
Wind: SSE 2 mph , 4 km/h
Temperature: 14°C
Dew Point: 11°C
Humidity: 82%
Barometer: 1024 hPa
Clouds: Mostly cloudy
Visibility: 6 miles , 10 km
Cloud details: Mostly cloudy 1402 m
2018/11/16 11:50 EGQL 161150Z 16002KT 9999 BKN046 14/11 Q1024 BLU
 
EGPH - Edinburgh Airpor, United Kingdom
Distance from station: SE 145mi, 234km
Updated: 16/11/2018 11:50
Partly cloudy
Partly cloudy
 Wind from varies
Wind: varies 3 mph , 6 km/h
Temperature: 13°C
Dew Point: 12°C
Humidity: 94%
Barometer: 1024 hPa
Clouds: Partly cloudy
Visibility: 6 miles , 10 km
Cloud details: Few Clouds 701 m
Partly cloudy 1280 m
2018/11/16 11:50 EGPH 161150Z VRB03KT 9999 FEW023 SCT042 13/12 Q1024
EGPC - Wick, United Kingdom
Distance from station: NE 146mi, 234km
Updated: 16/11/2018 11:50
Clear
Clear
 Wind from SSW
Wind: SSW 9 mph , 15 km/h
Temperature: 10°C
Wind Chill: 8°C
Dew Point: 7°C
Humidity: 82%
Barometer: 1023 hPa
Summary: Clear
Visibility: greater than 7 miles , 10 km
2018/11/16 11:50 EGPC 161150Z 21008KT 170V230 CAVOK 10/07 Q1023

-

free counters
QR Code Twitter Scottish Weather Network UK Weather Network
Argyll House B & B

Argyll House B & B is situated in North West Skye and is the perfect base to see all that the Isle of Skye has to offer.
We are now full for 2018 - Bookings been taken for 2019.